Time;durP1;ratioP1;P1;durP2;ratioP2;P2;SDS_P1;SDS_P2;PMS_P1;PMS_P2;Temp;Humidity;BMP_temperature;BMP_pressure;BME280_temperature;BME280_humidity;BME280_pressure;Samples;Min_cycle;Max_cycle;Signal;HPM_P1;HPM_P2
2022/11/03 00:00:31;;;;;;;;;6.00;5.00;;;;;21.48;59.28;101438.71;106350;1271;18646;-80
2022/11/03 00:02:58;;;;;;;;;5.00;5.00;;;;;21.48;59.42;101443.39;106338;1287;20069;-80
2022/11/03 00:08:11;;;;;;;;;4.00;4.00;;;;;21.48;58.98;101443.97;106355;1286;18446;-80
2022/11/03 00:10:38;;;;;;;;;4.00;4.00;;;;;21.48;59.01;101446.33;106391;1282;21968;-80
2022/11/03 00:13:06;;;;;;;;;9.00;6.00;;;;;21.48;59.00;101447.62;106354;1285;20888;-80
2022/11/03 00:15:33;;;;;;;;;7.50;6.50;;;;;21.48;59.10;101442.33;106356;1278;19476;-80
2022/11/03 00:18:00;;;;;;;;;5.00;5.00;;;;;21.48;59.06;101446.02;106362;1286;22199;-80
2022/11/03 00:20:28;;;;;;;;;5.00;5.00;;;;;21.48;59.03;101447.65;106408;1294;19299;-80
2022/11/03 00:22:55;;;;;;;;;5.00;5.00;;;;;21.47;58.96;101447.17;106423;1285;20288;-80
2022/11/03 00:25:23;;;;;;;;;4.00;4.00;;;;;21.47;58.95;101448.23;106493;1294;18510;-81
2022/11/03 00:27:50;;;;;;;;;4.00;4.00;;;;;21.48;58.90;101450.20;106595;1294;19307;-78
2022/11/03 00:30:17;;;;;;;;;5.00;5.00;;;;;21.47;58.84;101459.15;106520;1285;20087;-81
2022/11/03 00:32:45;;;;;;;;;5.00;5.00;;;;;21.47;58.67;101459.13;106524;1286;21166;-80
2022/11/03 00:35:12;;;;;;;;;6.00;6.00;;;;;21.47;58.69;101460.27;106366;1293;19254;-80
2022/11/03 00:37:39;;;;;;;;;5.00;5.00;;;;;21.47;58.61;101462.85;106364;1288;18433;-80
2022/11/03 00:40:07;;;;;;;;;7.00;4.50;;;;;21.47;58.78;101461.16;106365;1285;20058;-80
2022/11/03 00:42:36;;;;;;;;;6.00;5.00;;;;;21.46;58.73;101460.70;106442;1293;19170;-80
2022/11/03 00:45:03;;;;;;;;;6.00;6.00;;;;;21.46;58.55;101462.16;106362;1294;18376;-80
2022/11/03 00:47:31;;;;;;;;;4.00;4.00;;;;;21.46;58.73;101462.33;106491;1293;18531;-80
2022/11/03 00:49:58;;;;;;;;;7.00;6.50;;;;;21.46;58.61;101461.30;106341;1283;22952;-80
2022/11/03 00:52:25;;;;;;;;;6.00;6.00;;;;;21.46;58.32;101459.49;106369;1272;20903;-81
2022/11/03 00:54:53;;;;;;;;;6.00;6.00;;;;;21.45;58.34;101464.46;106387;1285;23002;-82
2022/11/03 00:57:20;;;;;;;;;6.00;6.00;;;;;21.45;58.37;101462.45;106368;1293;19291;-80
2022/11/03 00:59:47;;;;;;;;;8.00;6.00;;;;;21.45;58.43;101466.34;106535;1294;18433;-80
2022/11/03 01:02:15;;;;;;;;;4.00;4.00;;;;;21.45;58.28;101468.52;106390;1298;18471;-80
2022/11/03 01:07:27;;;;;;;;;;;;;;;21.44;58.37;101472.20;106450;1286;19933;-81
2022/11/03 01:09:54;;;;;;;;;5.00;5.00;;;;;21.44;58.09;101468.80;106422;1287;18266;-81
2022/11/03 01:12:22;;;;;;;;;8.00;8.00;;;;;21.43;58.19;101465.80;106362;1294;19407;-80
2022/11/03 01:14:49;;;;;;;;;7.00;7.00;;;;;21.43;58.00;101465.93;106449;1294;18493;-80
2022/11/03 01:17:16;;;;;;;;;8.00;8.00;;;;;21.42;58.01;101465.36;106400;1285;20092;-80
2022/11/03 01:19:44;;;;;;;;;6.00;6.00;;;;;21.43;58.12;101469.27;106418;1293;22849;-80
2022/11/03 01:22:11;;;;;;;;;10.00;9.00;;;;;21.42;57.84;101471.33;106444;1294;18610;-78
2022/11/03 01:24:39;;;;;;;;;8.00;8.00;;;;;21.42;57.96;101471.56;106385;1269;18595;-80
2022/11/03 01:27:07;;;;;;;;;6.00;6.00;;;;;21.42;58.00;101471.23;106294;1279;21802;-80
2022/11/03 01:29:34;;;;;;;;;8.00;8.00;;;;;21.42;57.88;101472.27;106408;1278;21795;-81
2022/11/03 01:32:02;;;;;;;;;5.00;5.00;;;;;21.42;57.84;101471.94;106406;1293;18513;-80
2022/11/03 01:34:29;;;;;;;;;10.00;9.00;;;;;21.41;57.83;101471.67;106361;1286;23463;-80
2022/11/03 01:36:56;;;;;;;;;5.00;4.00;;;;;21.41;57.74;101471.13;106467;1285;18421;-80
2022/11/03 01:39:24;;;;;;;;;6.00;6.00;;;;;21.41;57.75;101470.91;106494;1292;18741;-81
2022/11/03 01:41:51;;;;;;;;;9.00;8.00;;;;;21.40;57.53;101462.98;106532;1295;19315;-80
2022/11/03 01:44:18;;;;;;;;;5.00;5.00;;;;;21.40;57.47;101463.19;106510;1294;18772;-80
2022/11/03 01:46:46;;;;;;;;;8.00;8.00;;;;;21.40;57.45;101465.17;106538;1294;18498;-80
2022/11/03 01:49:13;;;;;;;;;12.00;10.00;;;;;21.40;57.32;101463.54;106447;1285;20853;-80
2022/11/03 01:51:40;;;;;;;;;8.00;8.00;;;;;21.41;57.34;101461.53;106368;1293;18785;-80
2022/11/03 01:54:08;;;;;;;;;6.00;6.00;;;;;21.40;57.39;101464.63;106472;1282;22761;-80
2022/11/03 01:56:35;;;;;;;;;4.50;4.00;;;;;21.40;57.25;101465.71;106400;1294;19106;-80
2022/11/03 01:59:02;;;;;;;;;13.00;9.00;;;;;21.39;57.29;101461.15;106461;1294;18430;-80
2022/11/03 02:01:30;;;;;;;;;6.00;6.00;;;;;21.39;57.04;101464.34;106512;1294;21225;-80
2022/11/03 02:03:57;;;;;;;;;6.00;5.00;;;;;21.40;57.04;101460.91;106398;1279;20871;-81
2022/11/03 02:06:24;;;;;;;;;9.00;8.00;;;;;21.39;56.92;101458.95;106445;1278;22889;-81
2022/11/03 02:08:52;;;;;;;;;10.00;9.50;;;;;21.38;56.97;101452.85;106406;1279;19788;-80
2022/11/03 02:14:04;;;;;;;;;5.00;5.00;;;;;21.38;56.86;101450.36;106315;1294;18499;-80
2022/11/03 02:16:32;;;;;;;;;8.50;8.50;;;;;21.37;57.10;101449.68;106382;1285;20055;-81
2022/11/03 02:18:59;;;;;;;;;8.00;8.00;;;;;21.38;56.89;101448.17;106360;1288;26202;-80
2022/11/03 02:21:26;;;;;;;;;7.00;6.00;;;;;21.37;56.97;101440.98;106322;1286;21841;-80
2022/11/03 02:23:54;;;;;;;;;9.00;9.00;;;;;21.37;56.67;101445.86;106389;1286;19043;-80
2022/11/03 02:26:21;;;;;;;;;8.00;8.00;;;;;21.37;56.64;101444.50;106366;1285;20736;-80
2022/11/03 02:28:48;;;;;;;;;8.00;6.00;;;;;21.37;56.50;101449.38;106418;1278;18576;-80
2022/11/03 02:31:16;;;;;;;;;5.50;5.50;;;;;21.37;56.69;101451.18;106399;1294;18656;-80
2022/11/03 02:33:43;;;;;;;;;8.00;8.00;;;;;21.36;56.53;101449.86;106428;1294;19277;-80
2022/11/03 02:36:11;;;;;;;;;10.00;8.00;;;;;21.35;56.58;101445.72;106351;1292;19469;-80
2022/11/03 02:38:38;;;;;;;;;9.00;9.00;;;;;21.35;56.41;101454.99;106523;1294;20276;-80
2022/11/03 02:41:06;;;;;;;;;5.00;5.00;;;;;21.35;56.43;101458.10;106457;1294;19300;-81
2022/11/03 02:43:33;;;;;;;;;10.00;10.00;;;;;21.34;56.44;101460.37;106422;1285;19491;-81
2022/11/03 02:46:00;;;;;;;;;8.50;6.00;;;;;21.34;56.42;101467.42;106416;1286;22414;-80
2022/11/03 02:48:28;;;;;;;;;8.50;8.50;;;;;21.34;56.40;101464.89;106473;1278;22486;-80
2022/11/03 02:50:55;;;;;;;;;9.00;9.00;;;;;21.33;56.40;101465.37;106476;1285;23306;-80
2022/11/03 02:53:23;;;;;;;;;13.00;13.00;;;;;21.33;56.22;101461.38;106444;1278;23074;-80
2022/11/03 02:55:50;;;;;;;;;8.50;8.50;;;;;21.33;56.28;101459.40;106452;1294;22744;-81
2022/11/03 02:58:17;;;;;;;;;9.00;8.00;;;;;21.32;56.22;101459.27;106437;1294;18586;-80
2022/11/03 03:00:45;;;;;;;;;8.50;8.50;;;;;21.33;56.28;101469.22;106420;1294;23288;-80
2022/11/03 03:03:12;;;;;;;;;10.33;10.33;;;;;21.33;56.28;101469.90;106482;1294;19269;-80
2022/11/03 03:05:39;;;;;;;;;9.00;9.00;;;;;21.33;56.42;101467.95;106452;1297;18576;-81
2022/11/03 03:08:07;;;;;;;;;8.50;8.50;;;;;21.32;56.03;101467.11;106483;1285;20738;-81
2022/11/03 03:10:35;;;;;;;;;9.00;8.00;;;;;21.32;56.07;101467.14;106448;1293;19370;-80
2022/11/03 03:13:02;;;;;;;;;11.00;11.00;;;;;21.32;55.98;101473.34;106439;1292;22302;-81
2022/11/03 03:15:29;;;;;;;;;12.00;12.00;;;;;21.31;55.82;101474.16;106336;1279;20240;-80
2022/11/03 03:17:57;;;;;;;;;10.00;9.00;;;;;21.31;55.60;101468.30;106481;1294;19435;-80
2022/11/03 03:20:24;;;;;;;;;12.00;10.00;;;;;21.32;55.76;101464.45;106452;1294;18593;-80
2022/11/03 03:22:51;;;;;;;;;8.00;8.00;;;;;21.31;55.78;101467.38;106479;1278;18862;-81
2022/11/03 03:25:19;;;;;;;;;7.00;6.00;;;;;21.31;55.55;101465.98;106439;1278;21934;-80
2022/11/03 03:27:46;;;;;;;;;9.00;9.00;;;;;21.30;55.66;101462.27;106438;1294;18464;-80
2022/11/03 03:30:13;;;;;;;;;11.00;10.00;;;;;21.30;55.55;101455.86;106452;1294;18763;-80
2022/11/03 03:32:41;;;;;;;;;10.00;10.00;;;;;21.30;55.41;101453.41;106465;1277;21212;-80
2022/11/03 03:35:08;;;;;;;;;10.50;10.50;;;;;21.30;55.48;101456.85;106403;1294;18518;-80
2022/11/03 03:37:35;;;;;;;;;8.00;8.00;;;;;21.30;55.51;101456.23;106427;1286;21392;-80
2022/11/03 03:40:03;;;;;;;;;10.00;10.00;;;;;21.29;55.58;101458.89;106434;1278;23641;-81
2022/11/03 03:42:30;;;;;;;;;6.00;6.00;;;;;21.29;55.46;101464.17;106407;1294;18581;-80
2022/11/03 03:44:58;;;;;;;;;11.00;11.00;;;;;21.29;55.58;101462.77;106324;1293;20941;-80
2022/11/03 03:47:25;;;;;;;;;16.00;14.00;;;;;21.28;55.43;101459.72;106443;1278;20269;-80
2022/11/03 03:49:53;;;;;;;;;10.00;9.00;;;;;21.27;55.53;101462.85;106384;1278;18484;-80
2022/11/03 03:52:20;;;;;;;;;8.50;8.50;;;;;21.28;55.50;101464.27;106369;1293;18547;-80
2022/11/03 03:54:47;;;;;;;;;9.00;9.00;;;;;21.28;55.31;101471.77;106378;1286;21332;-80
2022/11/03 03:57:15;;;;;;;;;12.00;10.00;;;;;21.27;55.27;101467.29;106392;1294;18415;-80
2022/11/03 03:59:42;;;;;;;;;12.00;12.00;;;;;21.27;55.26;101469.64;106452;1294;25455;-80
2022/11/03 04:02:10;;;;;;;;;14.00;14.00;;;;;21.26;55.20;101474.41;106396;1292;20273;-80
2022/11/03 04:04:37;;;;;;;;;12.00;12.00;;;;;21.27;55.06;101473.69;106398;1277;18514;-80
2022/11/03 04:09:50;;;;;;;;;6.00;6.00;;;;;21.26;55.08;101474.67;106387;1294;19313;-80
2022/11/03 04:23:17;;;;;;;;;8.00;6.00;;;;;21.25;54.82;101484.84;106369;1294;18517;-80
2022/11/03 04:25:46;;;;;;;;;8.00;8.00;;;;;21.24;54.81;101479.79;106398;1287;19239;-80
2022/11/03 04:28:14;;;;;;;;;8.00;8.00;;;;;21.25;54.74;101483.54;106350;1285;18405;-80
2022/11/03 04:30:41;;;;;;;;;14.00;14.00;;;;;21.24;54.60;101485.21;106384;1294;18797;-80
2022/11/03 04:33:08;;;;;;;;;8.00;8.00;;;;;21.23;54.65;101485.54;106359;1294;19551;-80
2022/11/03 04:35:36;;;;;;;;;;;;;;;21.23;54.41;101484.39;106382;1294;20166;-80
2022/11/03 04:38:03;;;;;;;;;14.00;14.00;;;;;21.23;54.37;101484.81;106336;1294;19023;-83
2022/11/03 04:40:30;;;;;;;;;;;;;;;21.23;54.56;101487.52;106411;1294;19352;-80
2022/11/03 04:42:58;;;;;;;;;;;;;;;21.22;54.69;101489.40;106497;1278;19841;-80
2022/11/03 04:45:25;;;;;;;;;12.00;12.00;;;;;21.22;54.35;101488.15;106381;1274;22755;-80
2022/11/03 04:47:52;;;;;;;;;10.00;9.00;;;;;21.23;54.51;101488.67;106443;1276;19456;-81
2022/11/03 04:50:20;;;;;;;;;14.67;14.00;;;;;21.21;54.40;101476.59;106486;1294;19449;-80
2022/11/03 04:52:47;;;;;;;;;13.00;13.00;;;;;21.22;54.44;101472.73;106426;1277;21996;-80
2022/11/03 04:55:15;;;;;;;;;6.00;6.00;;;;;21.21;54.34;101475.70;106397;1278;20692;-80
2022/11/03 04:57:42;;;;;;;;;20.00;20.00;;;;;21.21;54.11;101471.21;106378;1300;20233;-81
2022/11/03 05:00:10;;;;;;;;;13.50;12.50;;;;;21.21;54.19;101470.63;106360;1294;18845;-80
2022/11/03 05:02:37;;;;;;;;;8.00;8.00;;;;;21.21;54.14;101474.83;106345;1294;22794;-80
2022/11/03 05:05:04;;;;;;;;;11.50;10.50;;;;;21.20;54.06;101473.08;106377;1293;18477;-80
2022/11/03 05:07:32;;;;;;;;;8.00;8.00;;;;;21.20;53.97;101472.95;106376;1293;18564;-80
2022/11/03 05:09:59;;;;;;;;;;;;;;;21.20;53.95;101472.80;106389;1288;19322;-80
2022/11/03 05:12:26;;;;;;;;;8.00;8.00;;;;;21.19;53.89;101474.69;106297;1285;18394;-80
2022/11/03 05:14:54;;;;;;;;;18.50;18.00;;;;;21.20;53.81;101474.10;106317;1294;23480;-80
2022/11/03 05:17:21;;;;;;;;;20.00;20.00;;;;;21.19;53.65;101475.63;106333;1285;19300;-81
2022/11/03 05:19:49;;;;;;;;;11.50;11.50;;;;;21.19;53.58;101474.67;106360;1294;18512;-80
2022/11/03 05:22:16;;;;;;;;;13.00;11.50;;;;;21.18;53.51;101473.38;106372;1292;18553;-80
2022/11/03 05:24:43;;;;;;;;;10.50;10.00;;;;;21.18;53.57;101475.66;106321;1287;19285;-80
2022/11/03 05:27:11;;;;;;;;;9.50;8.50;;;;;21.18;53.43;101473.55;106335;1278;18574;-80
2022/11/03 05:29:38;;;;;;;;;16.00;15.00;;;;;21.17;53.38;101470.86;106337;1285;20646;-80
2022/11/03 05:32:05;;;;;;;;;6.00;6.00;;;;;21.18;53.23;101477.38;106326;1277;20789;-80
2022/11/03 05:34:33;;;;;;;;;5.00;8.50;;;;;21.18;53.29;101478.13;106278;1286;18475;-80
2022/11/03 05:37:00;;;;;;;;;8.50;8.50;;;;;21.16;53.23;101479.16;106351;1285;22122;-80
2022/11/03 05:39:27;;;;;;;;;10.00;10.00;;;;;21.17;53.29;101485.09;106324;1294;19170;-80
2022/11/03 05:41:55;;;;;;;;;18.00;16.50;;;;;21.16;53.11;101483.70;106383;1293;19118;-80
2022/11/03 05:44:22;;;;;;;;;13.00;11.50;;;;;21.17;53.14;101486.84;106366;1293;18618;-80
2022/11/03 05:46:49;;;;;;;;;14.50;14.00;;;;;21.18;53.07;101491.20;106369;1285;19664;-80
2022/11/03 05:49:17;;;;;;;;;12.00;10.00;;;;;21.17;53.29;101494.51;106367;1293;19061;-80
2022/11/03 05:51:44;;;;;;;;;9.00;9.00;;;;;21.17;53.26;101497.41;106435;1292;18899;-81
2022/11/03 05:54:11;;;;;;;;;17.00;17.00;;;;;21.17;53.21;101492.89;106351;1285;19224;-80
2022/11/03 05:56:39;;;;;;;;;12.00;10.00;;;;;21.17;52.91;101497.25;106386;1281;19542;-80
2022/11/03 05:59:06;;;;;;;;;12.00;10.00;;;;;21.17;53.06;101495.24;106362;1294;18594;-80
2022/11/03 06:01:34;;;;;;;;;9.00;8.00;;;;;21.17;52.94;101493.64;106374;1294;19275;-80
2022/11/03 06:04:01;;;;;;;;;9.00;9.00;;;;;21.16;53.10;101495.88;106397;1285;21784;-80
2022/11/03 06:06:29;;;;;;;;;9.00;9.00;;;;;21.16;52.88;101495.20;106393;1286;18824;-80
2022/11/03 06:08:56;;;;;;;;;9.00;9.00;;;;;21.16;53.09;101496.97;106439;1285;19294;-80
2022/11/03 06:11:23;;;;;;;;;11.00;11.00;;;;;21.15;53.05;101493.79;106444;1285;18584;-80
2022/11/03 06:13:51;;;;;;;;;11.00;10.00;;;;;21.16;52.91;101493.94;106363;1279;20204;-80
2022/11/03 06:16:18;;;;;;;;;9.00;8.00;;;;;21.15;52.69;101491.83;106332;1276;22716;-81
2022/11/03 06:18:45;;;;;;;;;15.00;13.50;;;;;21.16;52.70;101495.91;106397;1276;18487;-81
2022/11/03 06:21:13;;;;;;;;;9.50;9.00;;;;;21.17;52.46;101502.13;106322;1300;18606;-80
2022/11/03 06:23:40;;;;;;;;;16.00;16.00;;;;;21.19;52.21;101495.73;106373;1294;19659;-80
2022/11/03 06:26:07;;;;;;;;;10.00;9.00;;;;;21.15;51.87;101496.05;106357;1285;21892;-82
2022/11/03 06:28:35;;;;;;;;;10.00;9.00;;;;;21.09;51.60;101501.20;106397;1280;19469;-79
2022/11/03 06:31:03;;;;;;;;;11.00;10.00;;;;;21.12;52.26;101502.20;106506;1282;20954;-81
2022/11/03 06:33:30;;;;;;;;;15.00;12.00;;;;;21.19;52.93;101500.54;106355;1286;22715;-81
2022/11/03 06:35:57;;;;;;;;;13.00;13.00;;;;;21.26;53.02;101502.66;106419;1278;21158;-80
2022/11/03 06:38:25;;;;;;;;;12.00;10.00;;;;;21.32;53.03;101504.63;106410;1286;19288;-80
2022/11/03 06:40:52;;;;;;;;;18.50;18.50;;;;;21.36;53.20;101505.44;106453;1282;18546;-80
2022/11/03 06:43:20;;;;;;;;;13.00;11.50;;;;;21.39;53.31;101502.96;106426;1279;27705;-80
2022/11/03 06:45:47;;;;;;;;;15.00;15.00;;;;;21.41;53.54;101499.50;106367;1295;19313;-80
2022/11/03 06:48:14;;;;;;;;;14.00;12.33;;;;;21.41;53.68;101498.20;106395;1269;18586;-80
2022/11/03 06:50:42;;;;;;;;;10.00;10.00;;;;;21.43;53.63;101500.37;106459;1278;18602;-80
2022/11/03 06:53:09;;;;;;;;;13.00;13.00;;;;;21.39;53.76;101502.52;106551;1272;20605;-81
2022/11/03 06:55:37;;;;;;;;;13.50;12.50;;;;;21.36;54.01;101505.10;106505;1286;22062;-81
2022/11/03 06:58:04;;;;;;;;;16.00;15.00;;;;;21.32;53.86;101504.98;106426;1294;20063;-80
2022/11/03 07:00:32;;;;;;;;;16.00;15.00;;;;;21.30;53.77;101510.23;106452;1284;22609;-80
2022/11/03 07:02:59;;;;;;;;;;;;;;;21.30;53.81;101510.66;106446;1285;18477;-80
2022/11/03 07:05:27;;;;;;;;;15.00;15.00;;;;;21.30;54.23;101510.08;106463;1285;18142;-82
2022/11/03 07:07:54;;;;;;;;;20.00;16.00;;;;;21.31;54.31;101513.36;106435;1294;19377;-80
2022/11/03 07:10:21;;;;;;;;;16.00;12.00;;;;;21.31;54.46;101517.05;106414;1294;18460;-81
2022/11/03 07:12:49;;;;;;;;;10.00;10.00;;;;;21.32;54.86;101514.21;106513;1286;20118;-80
2022/11/03 07:15:16;;;;;;;;;14.00;13.00;;;;;21.34;54.97;101519.98;106413;1276;19301;-80
2022/11/03 07:17:43;;;;;;;;;12.00;12.00;;;;;21.39;54.87;101517.67;106512;1278;18481;-81
2022/11/03 07:20:11;;;;;;;;;12.00;12.00;;;;;21.44;54.86;101515.64;106487;1285;18752;-81
2022/11/03 07:22:38;;;;;;;;;15.00;11.00;;;;;21.49;54.67;101512.90;106384;1286;19238;-81
2022/11/03 07:25:05;;;;;;;;;10.00;9.00;;;;;21.55;54.42;101513.42;106409;1289;19995;-80
2022/11/03 07:27:33;;;;;;;;;12.00;10.00;;;;;21.59;54.51;101511.73;106332;1285;18714;-80
2022/11/03 07:30:00;;;;;;;;;9.50;9.50;;;;;21.63;54.50;101509.84;106425;1294;19313;-80
2022/11/03 07:32:27;;;;;;;;;10.00;10.00;;;;;21.66;54.45;101506.23;106371;1278;18869;-81
2022/11/03 07:34:55;;;;;;;;;9.00;8.50;;;;;21.71;54.34;101504.78;106478;1285;18598;-81
2022/11/03 07:37:22;;;;;;;;;10.00;10.00;;;;;21.73;54.48;101501.48;106415;1278;21059;-81
2022/11/03 07:39:50;;;;;;;;;8.00;8.00;;;;;21.74;54.32;101502.61;106420;1285;18472;-81
2022/11/03 07:42:17;;;;;;;;;10.50;9.50;;;;;21.75;54.42;101501.11;106414;1278;18842;-82
2022/11/03 07:44:44;;;;;;;;;8.00;8.00;;;;;21.78;54.56;101503.93;106368;1285;21074;-81
2022/11/03 07:47:12;;;;;;;;;8.00;6.00;;;;;21.77;54.51;101502.83;106362;1293;21124;-80
2022/11/03 07:49:39;;;;;;;;;9.00;9.00;;;;;21.82;54.25;101503.22;106387;1285;19082;-80
2022/11/03 07:52:07;;;;;;;;;9.00;9.00;;;;;21.85;54.34;101499.78;106382;1285;21521;-80
2022/11/03 07:54:34;;;;;;;;;8.33;7.00;;;;;21.87;54.37;101499.06;106345;1286;18830;-80
2022/11/03 07:57:01;;;;;;;;;9.50;9.50;;;;;21.87;54.13;101494.09;106521;1271;19966;-79
2022/11/03 07:59:29;;;;;;;;;9.00;9.00;;;;;21.90;54.20;101493.63;106366;1285;21282;-80
2022/11/03 08:01:57;;;;;;;;;9.00;9.00;;;;;21.96;54.32;101492.45;106271;1286;115273;-79
2022/11/03 08:04:25;;;;;;;;;10.00;7.50;;;;;21.97;54.36;101487.19;106322;1285;18876;-80
2022/11/03 08:06:53;;;;;;;;;13.00;10.00;;;;;22.01;54.30;101488.02;106527;1294;19165;-81
2022/11/03 08:09:20;;;;;;;;;11.00;9.50;;;;;22.05;54.24;101483.80;106516;1285;18505;-81
2022/11/03 08:11:48;;;;;;;;;10.00;9.00;;;;;22.09;54.04;101482.70;106454;1278;18766;-81
2022/11/03 08:14:15;;;;;;;;;8.00;6.50;;;;;22.13;54.70;101482.08;106345;1285;20813;-80
2022/11/03 08:16:42;;;;;;;;;10.50;8.50;;;;;22.16;54.64;101481.39;106310;1285;22032;-80
2022/11/03 08:19:10;;;;;;;;;9.67;9.00;;;;;22.18;54.83;101478.50;106261;1286;20690;-80
2022/11/03 08:21:37;;;;;;;;;6.00;6.00;;;;;22.19;55.16;101475.36;106333;1294;22688;-81
2022/11/03 08:24:04;;;;;;;;;7.00;7.00;;;;;22.24;55.39;101472.20;106338;1288;18717;-80
2022/11/03 08:26:32;;;;;;;;;9.00;7.00;;;;;22.26;55.08;101469.39;106437;1294;18541;-83
2022/11/03 08:28:59;;;;;;;;;11.00;9.00;;;;;22.27;55.00;101468.84;106400;1278;19368;-80
2022/11/03 08:31:27;;;;;;;;;14.00;10.00;;;;;22.27;54.78;101467.58;106427;1278;20561;-79
2022/11/03 08:33:54;;;;;;;;;15.00;14.00;;;;;22.17;53.87;101465.80;106438;1279;20330;-79
2022/11/03 08:36:21;;;;;;;;;18.00;17.00;;;;;22.03;52.62;101460.35;106470;1285;22207;-84
2022/11/03 08:38:49;;;;;;;;;19.00;18.00;;;;;21.95;51.00;101457.10;106330;1288;18489;-85
2022/11/03 08:41:17;;;;;;;;;19.00;18.00;;;;;21.91;50.26;101458.66;106396;1285;20240;-86
2022/11/03 08:43:44;;;;;;;;;17.00;14.00;;;;;21.88;48.99;101453.06;106442;1294;19326;-85
2022/11/03 08:46:11;;;;;;;;;20.50;20.00;;;;;21.80;48.60;101451.22;106519;1294;18512;-83
2022/11/03 08:48:39;;;;;;;;;18.50;17.50;;;;;21.76;47.91;101448.75;106321;1286;19264;-82
2022/11/03 08:51:07;;;;;;;;;20.33;18.00;;;;;21.67;47.26;101445.77;106595;1278;19252;-85
2022/11/03 08:53:34;;;;;;;;;23.00;21.00;;;;;21.65;47.32;101442.21;106428;1300;22815;-85
2022/11/03 08:56:01;;;;;;;;;21.00;18.00;;;;;21.63;46.96;101446.52;106439;1288;18573;-85
2022/11/03 08:58:29;;;;;;;;;29.50;23.50;;;;;21.64;46.84;101447.01;106439;1285;20724;-85
2022/11/03 09:05:06;;;;;;;;;21.00;21.00;;;;;21.61;45.50;101438.55;102985;1317;21559;-81
2022/11/03 09:07:34;;;;;;;;;21.00;20.00;;;;;21.58;45.06;101437.39;106065;1297;18356;-80
2022/11/03 09:10:01;;;;;;;;;20.00;19.00;;;;;21.61;45.09;101436.40;106124;1296;18477;-80
2022/11/03 09:12:28;;;;;;;;;;;;;;;21.68;45.76;101433.88;106112;1282;19529;-80
2022/11/03 09:14:56;;;;;;;;;18.50;17.50;;;;;21.73;46.19;101438.20;106402;1289;18371;-80
2022/11/03 09:17:24;;;;;;;;;19.50;17.50;;;;;21.76;46.31;101438.56;106245;1282;22628;-78
2022/11/03 09:19:53;;;;;;;;;20.00;18.50;;;;;21.76;46.71;101437.80;106343;1294;108323;-79
2022/11/03 09:22:20;;;;;;;;;16.00;15.00;;;;;21.69;46.52;101433.55;106396;1278;21535;-79
2022/11/03 09:24:48;;;;;;;;;22.50;21.50;;;;;21.62;46.14;101430.34;106422;1286;18481;-79
2022/11/03 09:27:15;;;;;;;;;22.50;20.00;;;;;21.62;46.03;101429.75;106511;1279;25388;-79
2022/11/03 09:29:43;;;;;;;;;20.00;18.00;;;;;21.60;45.78;101429.96;106468;1300;18372;-79
2022/11/03 09:32:10;;;;;;;;;20.00;17.50;;;;;21.58;45.37;101434.90;106458;1287;18516;-79
2022/11/03 09:34:38;;;;;;;;;17.00;13.50;;;;;21.53;45.29;101430.84;106466;1286;19576;-79
2022/11/03 09:37:05;;;;;;;;;14.00;13.00;;;;;21.51;44.75;101430.77;106433;1277;18393;-80
2022/11/03 09:39:33;;;;;;;;;14.00;13.00;;;;;21.43;44.63;101429.84;106528;1301;18512;-79
2022/11/03 09:42:02;;;;;;;;;18.00;18.00;;;;;21.43;44.40;101427.31;106532;1286;17951;-83
2022/11/03 09:44:30;;;;;;;;;17.00;14.00;;;;;21.42;44.35;101432.21;106479;1294;22022;-82
2022/11/03 09:46:57;;;;;;;;;13.50;13.00;;;;;21.47;44.21;101432.75;106461;1279;21875;-82
2022/11/03 09:49:25;;;;;;;;;14.00;13.00;;;;;21.52;44.44;101431.48;106491;1279;21954;-82
2022/11/03 09:51:53;;;;;;;;;17.00;16.00;;;;;21.58;44.92;101431.45;106434;1295;21614;-81
2022/11/03 09:54:20;;;;;;;;;16.00;14.00;;;;;21.62;45.41;101429.19;106533;1286;18483;-82
2022/11/03 09:56:48;;;;;;;;;13.00;13.00;;;;;21.66;45.70;101427.66;106449;1293;17989;-82
2022/11/03 09:59:15;;;;;;;;;;;;;;;21.68;45.97;101431.67;106368;1286;23339;-82
2022/11/03 10:01:42;;;;;;;;;13.50;13.00;;;;;21.67;46.46;101426.06;106461;1298;21271;-82
2022/11/03 10:04:10;;;;;;;;;13.50;13.00;;;;;21.69;46.68;101429.54;106422;1279;20449;-82
2022/11/03 10:06:37;;;;;;;;;10.00;10.00;;;;;21.70;46.98;101426.95;106475;1278;20242;-82
2022/11/03 10:09:06;;;;;;;;;11.33;11.33;;;;;21.69;47.48;101427.17;106439;1287;20531;-81
2022/11/03 10:11:34;;;;;;;;;12.00;10.00;;;;;21.70;47.70;101428.17;106447;1278;21972;-82
2022/11/03 10:14:01;;;;;;;;;9.00;8.00;;;;;21.69;48.00;101426.39;106330;1295;19803;-82
2022/11/03 10:16:29;;;;;;;;;13.00;10.00;;;;;21.69;48.24;101423.19;106462;1295;19086;-82
2022/11/03 10:18:56;;;;;;;;;14.00;12.00;;;;;21.69;48.42;101422.27;106426;1294;19641;-81
2022/11/03 10:21:23;;;;;;;;;12.00;9.50;;;;;21.69;48.72;101419.73;106495;1279;20767;-81
2022/11/03 10:23:53;;;;;;;;;12.00;10.67;;;;;21.69;48.92;101418.63;106437;1294;19627;-82
2022/11/03 10:26:21;;;;;;;;;10.00;10.00;;;;;21.70;49.19;101412.14;106394;1286;18158;-83
2022/11/03 10:28:48;;;;;;;;;11.00;10.00;;;;;21.69;49.23;101410.10;106395;1286;18396;-82
2022/11/03 10:31:15;;;;;;;;;12.00;10.00;;;;;21.69;49.42;101411.33;106358;1279;18486;-81
2022/11/03 10:33:43;;;;;;;;;10.00;10.00;;;;;21.68;49.46;101403.52;106360;1279;21421;-82
2022/11/03 10:36:10;;;;;;;;;9.00;9.00;;;;;21.66;49.72;101403.83;106499;1287;21690;-82
2022/11/03 10:38:37;;;;;;;;;9.00;9.00;;;;;21.67;49.76;101397.92;106449;1280;18575;-81
2022/11/03 10:41:05;;;;;;;;;10.00;10.00;;;;;21.67;49.85;101393.25;106394;1301;20498;-82
2022/11/03 10:43:32;;;;;;;;;9.00;8.00;;;;;21.69;49.90;101394.80;106366;1294;18412;-83
2022/11/03 10:46:00;;;;;;;;;12.00;11.00;;;;;21.69;50.04;101395.47;106623;1285;25457;-82
2022/11/03 10:48:28;;;;;;;;;10.00;9.00;;;;;21.70;50.17;101396.55;106512;1286;21901;-82
2022/11/03 10:50:55;;;;;;;;;8.00;8.00;;;;;21.68;50.17;101389.25;106555;1294;18362;-85
2022/11/03 10:53:22;;;;;;;;;;;;;;;21.63;49.86;101386.52;106456;1278;18431;-85
2022/11/03 10:55:50;;;;;;;;;10.00;9.00;;;;;21.50;49.22;101386.69;106493;1294;18863;-85
2022/11/03 10:58:17;;;;;;;;;9.00;9.00;;;;;21.49;48.79;101388.30;106427;1293;18534;-84
2022/11/03 11:00:45;;;;;;;;;9.00;8.00;;;;;21.35;47.63;101387.05;106502;1295;18751;-84
2022/11/03 11:03:12;;;;;;;;;8.00;8.00;;;;;21.34;47.24;101382.59;106370;1294;21566;-85
2022/11/03 11:05:40;;;;;;;;;9.00;9.00;;;;;21.35;46.36;101382.86;106399;1278;18873;-85
2022/11/03 11:08:07;;;;;;;;;12.00;10.00;;;;;21.30;45.57;101378.69;106431;1286;18087;-84
2022/11/03 11:10:34;;;;;;;;;10.00;8.00;;;;;21.28;45.22;101374.45;106481;1287;19538;-84
2022/11/03 11:13:02;;;;;;;;;9.00;8.00;;;;;21.29;44.72;101372.60;106446;1278;18440;-84
2022/11/03 11:15:29;;;;;;;;;9.00;8.00;;;;;21.29;44.45;101365.99;106368;1289;19223;-84
2022/11/03 11:18:01;;;;;;;;;6.00;6.00;;;;;21.26;44.13;101357.60;106499;1294;18758;-85
2022/11/03 11:20:32;;;;;;;;;8.00;6.00;;;;;21.26;43.92;101355.52;106554;1285;20258;-84
2022/11/03 11:23:00;;;;;;;;;9.00;9.00;;;;;21.24;43.68;101353.31;106465;1297;20035;-85
2022/11/03 11:25:27;;;;;;;;;8.50;6.00;;;;;21.23;43.44;101345.44;107029;1294;21197;-84
2022/11/03 11:27:55;;;;;;;;;5.50;5.50;;;;;21.23;43.45;101339.01;106481;1287;21265;-84
2022/11/03 11:30:23;;;;;;;;;9.00;8.00;;;;;21.24;43.32;101337.50;106348;1285;20202;-84
2022/11/03 11:32:53;;;;;;;;;6.00;6.00;;;;;21.24;43.36;101331.00;106384;1279;20677;-85
2022/11/03 11:35:20;;;;;;;;;6.00;6.00;;;;;21.24;43.19;101329.63;106437;1295;18371;-85
2022/11/03 11:37:48;;;;;;;;;7.00;6.00;;;;;21.24;43.28;101327.70;106446;1300;18107;-85